createdAt,value
2018-06-23T02:10:48.389Z,3.60
2018-06-23T02:13:17.288Z,1.53
2018-06-23T02:15:51.670Z,1.40
2018-06-23T02:19:29.064Z,1.60
2018-06-23T02:22:03.355Z,1.30
2018-06-23T02:24:37.823Z,1.50
2018-06-23T02:27:12.337Z,1.47
2018-06-23T02:29:46.695Z,1.50
2018-06-23T02:32:21.191Z,1.20
2018-06-23T02:34:55.545Z,1.83
2018-06-23T02:37:24.432Z,1.60
2018-06-23T02:39:53.344Z,1.67
2018-06-23T02:42:22.272Z,1.40
2018-06-23T02:44:51.166Z,1.50
2018-06-23T02:47:20.132Z,1.70
2018-06-23T02:49:49.160Z,3.10
2018-06-23T02:52:18.176Z,1.60
2018-06-23T02:54:47.101Z,1.80
2018-06-23T02:57:15.996Z,1.60
2018-06-23T02:59:44.911Z,1.80
2018-06-23T03:02:13.829Z,2.53
2018-06-23T03:04:42.737Z,1.87
2018-06-23T03:07:11.661Z,2.17
2018-06-23T03:09:40.573Z,1.93
2018-06-23T03:12:09.468Z,1.57
2018-06-23T03:14:38.956Z,2.37
2018-06-23T03:17:13.370Z,1.60
2018-06-23T03:19:42.436Z,1.47
2018-06-23T03:22:11.337Z,2.10
2018-06-23T03:24:40.251Z,1.67
2018-06-23T03:27:09.156Z,1.80
2018-06-23T03:29:38.285Z,2.20
2018-06-23T03:32:07.591Z,2.20
2018-06-23T03:34:36.496Z,2.10
2018-06-23T03:37:05.411Z,2.00
2018-06-23T03:39:34.320Z,2.33
2018-06-23T03:42:03.235Z,2.20
2018-06-23T03:44:31.906Z,1.90
2018-06-23T03:47:00.688Z,2.50
2018-06-23T03:49:29.616Z,2.53
2018-06-23T03:51:58.527Z,2.20
2018-06-23T03:54:27.424Z,1.77
2018-06-23T03:56:56.339Z,2.07
2018-06-23T03:59:25.384Z,2.10
2018-06-23T04:01:54.539Z,1.70
2018-06-23T04:04:23.436Z,2.53
2018-06-23T04:06:52.323Z,2.37
2018-06-23T04:09:21.234Z,1.80
2018-06-23T04:11:50.136Z,1.77
2018-06-23T04:14:19.332Z,2.10
2018-06-23T04:16:48.303Z,1.90
2018-06-23T04:19:18.488Z,2.20
2018-06-23T04:21:47.454Z,1.70
2018-06-23T04:24:16.351Z,1.87
2018-06-23T04:26:45.340Z,1.70
2018-06-23T04:29:14.315Z,2.20
2018-06-23T04:31:43.200Z,1.60
2018-06-23T04:34:12.097Z,1.70
2018-06-23T04:36:41.011Z,2.27
2018-06-23T04:39:09.913Z,1.93
2018-06-23T04:41:38.816Z,1.53
2018-06-23T04:44:07.760Z,1.50
2018-06-23T04:46:36.653Z,1.60
2018-06-23T04:49:05.604Z,2.10
2018-06-23T04:51:35.481Z,1.80
2018-06-23T04:54:04.387Z,2.10
2018-06-23T04:56:33.312Z,1.77
2018-06-23T04:59:02.236Z,2.30
2018-06-23T05:01:31.140Z,2.13
2018-06-23T05:04:00.048Z,1.90
2018-06-23T05:06:28.963Z,2.07
2018-06-23T05:08:57.860Z,1.83
2018-06-23T05:11:26.772Z,1.90
2018-06-23T05:13:55.683Z,2.40
2018-06-23T05:16:25.604Z,2.03
2018-06-23T05:18:54.644Z,1.70
2018-06-23T05:21:23.506Z,1.70
2018-06-23T05:23:52.444Z,1.70
2018-06-23T05:26:21.504Z,1.67
2018-06-23T05:28:50.427Z,1.90
2018-06-23T05:31:20.368Z,2.00
2018-06-23T05:33:49.264Z,2.50
2018-06-23T05:36:18.826Z,2.57
2018-06-23T05:38:47.719Z,2.10
2018-06-23T05:41:16.604Z,2.23
2018-06-23T05:43:45.598Z,2.30
2018-06-23T05:46:14.472Z,1.93
2018-06-23T05:48:43.379Z,2.10
2018-06-23T05:51:12.128Z,1.90
2018-06-23T05:53:40.915Z,2.17
2018-06-23T05:56:09.797Z,1.60
2018-06-23T05:58:38.931Z,2.20
2018-06-23T06:01:13.012Z,2.50
2018-06-23T06:03:41.941Z,1.93
2018-06-23T06:06:10.832Z,2.10
2018-06-23T06:08:39.775Z,2.20
2018-06-23T06:11:08.688Z,3.13
2018-06-23T06:13:37.603Z,1.77
2018-06-23T06:16:06.569Z,2.23
2018-06-23T06:18:35.488Z,1.93
2018-06-23T06:21:04.380Z,1.90
2018-06-23T06:23:33.891Z,2.37
2018-06-23T06:26:02.795Z,2.60
2018-06-23T06:28:31.713Z,2.20
2018-06-23T06:31:00.759Z,3.00
2018-06-23T06:33:29.665Z,2.20
2018-06-23T06:35:58.611Z,2.00
2018-06-23T06:38:27.384Z,2.00
2018-06-23T06:40:57.171Z,2.60
2018-06-23T06:43:26.152Z,2.60
2018-06-23T06:45:55.127Z,2.90
2018-06-23T06:48:24.028Z,3.20
2018-06-23T06:50:52.753Z,2.63
2018-06-23T06:53:21.491Z,2.00
2018-06-23T06:55:50.412Z,2.77
2018-06-23T06:58:19.320Z,2.50
2018-06-23T07:00:48.242Z,2.83
2018-06-23T07:03:17.159Z,2.87
2018-06-23T07:05:46.099Z,2.80
2018-06-23T07:08:15.016Z,3.33
2018-06-23T07:10:43.984Z,3.40
2018-06-23T07:13:12.913Z,2.90
2018-06-23T07:15:41.818Z,3.10
2018-06-23T07:18:10.738Z,3.13
2018-06-23T07:20:40.388Z,3.40
2018-06-23T07:23:10.315Z,3.37
2018-06-23T07:25:39.254Z,2.80
2018-06-23T07:28:08.164Z,3.13
2018-06-23T07:30:37.056Z,3.33
2018-06-23T07:33:06.132Z,3.10
2018-06-23T07:35:34.789Z,3.40
2018-06-23T07:38:04.648Z,2.80
2018-06-23T07:40:33.717Z,2.80
2018-06-23T07:43:02.648Z,2.83
2018-06-23T07:45:31.581Z,3.00
2018-06-23T07:48:00.523Z,3.00
2018-06-23T07:50:29.929Z,3.40
2018-06-23T07:52:58.852Z,2.33
2018-06-23T07:55:27.788Z,3.03
2018-06-23T07:57:56.708Z,3.50
2018-06-23T08:00:25.647Z,2.77
2018-06-23T08:02:54.546Z,3.60
2018-06-23T08:05:23.454Z,2.90
2018-06-23T08:07:52.356Z,3.47
2018-06-23T08:10:21.320Z,3.27
2018-06-23T08:12:50.189Z,2.70
2018-06-23T08:15:19.115Z,3.10
2018-06-23T08:17:47.884Z,2.80
2018-06-23T08:20:16.683Z,3.57
2018-06-23T08:22:45.613Z,3.60
2018-06-23T08:25:14.527Z,2.80
2018-06-23T08:27:43.445Z,2.77
2018-06-23T08:30:12.388Z,3.27
2018-06-23T08:32:41.331Z,2.90
2018-06-23T08:35:10.258Z,3.43
2018-06-23T08:37:39.199Z,3.20
2018-06-23T08:40:08.088Z,3.87
2018-06-23T08:42:37.089Z,3.60
2018-06-23T08:45:06.014Z,3.10
2018-06-23T08:47:35.252Z,2.87
2018-06-23T08:50:04.309Z,3.63
2018-06-23T08:52:33.236Z,3.53
2018-06-23T08:55:02.188Z,3.30
2018-06-23T08:57:31.092Z,2.40
2018-06-23T09:00:00.071Z,3.13
2018-06-23T09:02:29.116Z,2.80
2018-06-23T09:04:58.136Z,2.80
2018-06-23T09:07:27.040Z,3.97
2018-06-23T09:09:56.423Z,2.43
2018-06-23T09:12:25.364Z,2.87
2018-06-23T09:14:54.267Z,3.37
2018-06-23T09:17:23.211Z,2.73
2018-06-23T09:19:52.455Z,2.07
2018-06-23T09:22:21.405Z,2.43
2018-06-23T09:24:51.079Z,1.83
2018-06-23T09:27:20.080Z,1.77
2018-06-23T09:29:48.983Z,2.10
2018-06-23T09:32:17.904Z,2.43
2018-06-23T09:34:46.828Z,1.80
2018-06-23T09:37:15.752Z,2.33
2018-06-23T09:39:45.547Z,2.20
2018-06-23T09:42:14.584Z,2.00
2018-06-23T09:44:43.548Z,2.23
2018-06-23T09:47:12.459Z,2.37
2018-06-23T09:49:41.373Z,2.47
2018-06-23T09:52:10.328Z,1.63
2018-06-23T09:54:39.610Z,2.20
2018-06-23T09:57:09.547Z,2.90
2018-06-23T09:59:39.325Z,2.87
2018-06-23T10:02:08.744Z,2.43
2018-06-23T10:04:37.670Z,2.60
2018-06-23T10:07:06.614Z,2.57
2018-06-23T10:09:35.531Z,2.43
2018-06-23T10:12:04.553Z,2.30
2018-06-23T10:14:33.440Z,2.27
2018-06-23T10:17:02.374Z,2.27
2018-06-23T10:19:31.336Z,3.00
2018-06-23T10:22:00.320Z,2.30
2018-06-23T10:24:29.257Z,2.97
2018-06-23T10:26:58.361Z,2.97
2018-06-23T10:29:27.337Z,2.20
2018-06-23T10:31:56.639Z,2.37
2018-06-23T10:34:25.551Z,2.90
2018-06-23T10:36:54.444Z,2.67
2018-06-23T10:39:23.360Z,2.63
2018-06-23T10:41:52.919Z,2.80
2018-06-23T10:44:21.986Z,2.27
2018-06-23T10:46:50.844Z,2.47
2018-06-23T10:49:19.863Z,2.50
2018-06-23T10:51:48.763Z,2.37
2018-06-23T10:54:17.674Z,2.53
2018-06-23T10:56:46.637Z,2.20
2018-06-23T10:59:15.551Z,2.63
2018-06-23T11:01:44.460Z,3.53
2018-06-23T11:04:13.384Z,3.10
2018-06-23T11:06:42.308Z,2.10
2018-06-23T11:09:11.705Z,2.50
2018-06-23T11:11:40.614Z,3.40
2018-06-23T11:14:09.390Z,2.60
2018-06-23T11:16:38.672Z,3.30
2018-06-23T11:19:07.580Z,2.80
2018-06-23T11:21:36.793Z,2.40
2018-06-23T11:24:05.719Z,2.40
2018-06-23T11:26:34.624Z,2.50
2018-06-23T11:29:03.587Z,2.80
2018-06-23T11:31:32.484Z,3.03
2018-06-23T11:34:01.969Z,2.27
2018-06-23T11:36:30.863Z,2.63
2018-06-23T11:38:59.798Z,2.90
2018-06-23T11:41:28.726Z,3.07
2018-06-23T11:43:57.609Z,2.60
2018-06-23T11:46:26.621Z,2.83
2018-06-23T11:48:55.506Z,2.67
2018-06-23T11:51:24.460Z,2.90
2018-06-23T11:53:53.386Z,2.80
2018-06-23T11:56:22.347Z,2.83
2018-06-23T11:58:51.270Z,3.30
2018-06-23T12:01:20.488Z,2.10
2018-06-23T12:03:49.408Z,3.20
2018-06-23T12:06:21.868Z,3.03
2018-06-23T12:08:50.780Z,3.00
2018-06-23T12:11:20.075Z,3.20
2018-06-23T12:13:49.383Z,2.83
2018-06-23T12:16:18.676Z,2.70
2018-06-23T12:18:48.014Z,3.30
2018-06-23T12:21:16.912Z,2.43
2018-06-23T12:23:46.148Z,3.77
2018-06-23T12:26:16.060Z,2.97
2018-06-23T12:28:44.979Z,3.00
2018-06-23T12:31:13.956Z,3.00
2018-06-23T12:33:42.857Z,2.53
2018-06-23T12:36:11.779Z,3.07
2018-06-23T12:38:41.107Z,2.50
2018-06-23T12:41:13.069Z,2.80
2018-06-23T12:43:41.932Z,2.87
2018-06-23T12:46:10.852Z,2.77
2018-06-23T12:48:39.775Z,3.33
2018-06-23T12:51:08.712Z,3.97
2018-06-23T12:53:37.927Z,3.33
2018-06-23T12:56:06.854Z,3.27
2018-06-23T12:58:35.783Z,2.63
2018-06-23T13:01:04.719Z,3.17
2018-06-23T13:03:33.663Z,3.40
2018-06-23T13:06:02.616Z,3.17
2018-06-23T13:08:31.529Z,3.40
2018-06-23T13:11:00.684Z,4.20
2018-06-23T13:13:29.584Z,3.90
2018-06-23T13:15:58.493Z,3.10
2018-06-23T13:18:27.396Z,3.03
2018-06-23T13:20:57.068Z,2.83
2018-06-23T13:23:25.983Z,3.37
2018-06-23T13:25:54.911Z,3.30
2018-06-23T13:28:23.836Z,3.57
2018-06-23T13:30:52.761Z,3.20
2018-06-23T13:33:21.675Z,2.70
2018-06-23T13:35:50.615Z,3.10
2018-06-23T13:38:19.504Z,3.10
2018-06-23T13:40:48.420Z,3.67
2018-06-23T13:43:17.435Z,2.80
2018-06-23T13:45:46.361Z,3.33
2018-06-23T13:48:15.420Z,2.20
2018-06-23T13:50:44.423Z,2.77
2018-06-23T13:53:13.357Z,3.00
2018-06-23T13:55:42.310Z,2.90
2018-06-23T13:58:11.231Z,2.70
2018-06-23T14:00:40.176Z,2.93
2018-06-23T14:03:09.138Z,2.50
2018-06-23T14:05:37.992Z,2.50
2018-06-23T14:08:07.097Z,2.57
2018-06-23T14:10:36.000Z,2.17
2018-06-23T14:13:05.077Z,3.13
2018-06-23T14:15:33.980Z,1.83
2018-06-23T14:18:02.936Z,2.20
2018-06-23T14:20:31.867Z,1.93
2018-06-23T14:23:00.780Z,2.50
2018-06-23T14:25:29.752Z,2.53
2018-06-23T14:27:58.758Z,2.57
2018-06-23T14:30:27.635Z,2.97
2018-06-23T14:32:56.559Z,1.87
2018-06-23T14:35:25.492Z,2.17
2018-06-23T14:37:54.396Z,2.70
2018-06-23T14:40:23.291Z,1.90
2018-06-23T14:42:52.486Z,2.70
2018-06-23T14:45:21.487Z,1.80
2018-06-23T14:47:50.420Z,1.93
2018-06-23T14:50:19.328Z,1.90
2018-06-23T14:52:48.280Z,1.80
2018-06-23T14:55:17.209Z,2.17
2018-06-23T14:57:46.104Z,2.07
2018-06-23T15:00:15.026Z,2.10
2018-06-23T15:02:43.940Z,1.90
2018-06-23T15:05:12.936Z,2.00
2018-06-23T15:07:41.856Z,1.63
2018-06-23T15:10:22.228Z,2.03
2018-06-23T15:13:02.552Z,1.90
2018-06-23T15:15:31.903Z,2.20
2018-06-23T15:18:01.108Z,1.43
2018-06-23T15:20:30.003Z,2.00
2018-06-23T15:22:58.927Z,1.87
2018-06-23T15:25:27.851Z,1.87
2018-06-23T15:27:56.815Z,2.07
2018-06-23T15:30:25.698Z,2.00
2018-06-23T15:32:54.603Z,1.60
2018-06-23T15:35:23.562Z,1.90
2018-06-23T15:37:52.778Z,2.00
2018-06-23T15:40:21.877Z,1.50
2018-06-23T15:42:50.850Z,2.00
2018-06-23T15:45:19.759Z,2.47
2018-06-23T15:47:49.265Z,1.80
2018-06-23T15:50:18.424Z,2.83
2018-06-23T15:52:47.327Z,2.13
2018-06-23T15:55:16.240Z,2.40
2018-06-23T15:57:45.182Z,2.00
2018-06-23T16:00:14.122Z,2.23
2018-06-23T16:02:42.996Z,1.80
2018-06-23T16:05:11.928Z,1.90
2018-06-23T16:07:40.882Z,2.37
2018-06-23T16:10:14.612Z,1.73
2018-06-23T16:12:43.657Z,2.40
2018-06-23T16:15:12.552Z,2.07
2018-06-23T16:17:41.473Z,2.20
2018-06-23T16:20:10.469Z,2.10
2018-06-23T16:22:39.378Z,1.80
2018-06-23T16:25:08.506Z,1.73
2018-06-23T16:27:37.450Z,1.50
2018-06-23T16:30:06.608Z,2.57
2018-06-23T16:32:35.547Z,1.83
2018-06-23T16:35:04.737Z,1.80
2018-06-23T16:37:33.609Z,3.10
2018-06-23T16:40:02.662Z,2.47
2018-06-23T16:42:31.566Z,2.17
2018-06-23T16:45:00.560Z,2.70
2018-06-23T16:47:29.752Z,2.57
2018-06-23T16:49:58.640Z,2.30
2018-06-23T16:52:27.566Z,2.80
2018-06-23T16:54:56.484Z,2.20
2018-06-23T16:57:25.398Z,2.10
2018-06-23T16:59:54.413Z,2.20
2018-06-23T17:02:23.364Z,2.10
2018-06-23T17:04:52.279Z,2.10
2018-06-23T17:07:22.257Z,2.47
2018-06-23T17:09:51.180Z,2.10
2018-06-23T17:12:20.083Z,2.30
2018-06-23T17:14:49.052Z,1.83
2018-06-23T17:17:18.317Z,1.70
2018-06-23T17:19:47.296Z,1.60
2018-06-23T17:22:16.516Z,2.10
2018-06-23T17:24:45.515Z,1.60
2018-06-23T17:27:14.469Z,2.00
2018-06-23T17:29:43.413Z,1.80
2018-06-23T17:32:12.393Z,1.77
2018-06-23T17:34:41.859Z,2.17
2018-06-23T17:37:10.808Z,1.87
2018-06-23T17:39:39.728Z,1.70
2018-06-23T17:42:08.660Z,1.60
2018-06-23T17:44:37.783Z,1.77
2018-06-23T17:47:06.648Z,1.47
2018-06-23T17:49:35.555Z,1.50
2018-06-23T17:52:04.488Z,2.00
2018-06-23T17:54:33.463Z,1.80
2018-06-23T17:57:02.483Z,1.50
2018-06-23T17:59:31.303Z,1.60
2018-06-23T18:02:00.260Z,1.40
2018-06-23T18:04:29.122Z,1.50
2018-06-23T18:06:58.394Z,1.50
2018-06-23T18:09:27.285Z,2.00
2018-06-23T18:11:56.258Z,1.43
2018-06-23T18:14:26.172Z,1.27
2018-06-23T18:16:55.493Z,1.40
2018-06-23T18:19:24.347Z,1.23
2018-06-23T18:21:53.316Z,1.27
2018-06-23T18:24:22.344Z,1.30
2018-06-23T18:26:51.468Z,1.20
2018-06-23T18:29:20.420Z,1.50
2018-06-23T18:31:49.427Z,1.10
2018-06-23T18:34:18.328Z,1.30
2018-06-23T18:36:47.220Z,1.57
2018-06-23T18:39:16.228Z,1.53
2018-06-23T18:41:44.980Z,1.10
2018-06-23T18:44:13.800Z,1.90
2018-06-23T18:46:42.769Z,1.30
2018-06-23T18:49:11.685Z,2.27
2018-06-23T18:51:40.627Z,1.37
2018-06-23T18:54:09.523Z,1.53
2018-06-23T18:56:38.492Z,1.77
2018-06-23T18:59:07.409Z,1.87
2018-06-23T19:01:36.380Z,1.33
2018-06-23T19:04:05.495Z,1.13
2018-06-23T19:06:34.483Z,1.53
2018-06-23T19:09:04.251Z,1.53
2018-06-23T19:11:33.097Z,1.50
2018-06-23T19:14:02.028Z,1.00
2018-06-23T19:16:31.220Z,1.60
2018-06-23T19:19:00.170Z,1.60
2018-06-23T19:21:29.096Z,1.50
2018-06-23T19:23:58.047Z,1.67
2018-06-23T19:26:26.958Z,1.70
2018-06-23T19:28:55.980Z,1.63
2018-06-23T19:31:24.974Z,1.83
2018-06-23T19:33:53.872Z,1.90
2018-06-23T19:36:22.773Z,2.23
2018-06-23T19:38:51.704Z,1.83
2018-06-23T19:41:24.308Z,1.83
2018-06-23T19:43:53.320Z,1.67
2018-06-23T19:46:22.208Z,1.80
2018-06-23T19:48:51.436Z,1.70
2018-06-23T19:51:20.397Z,1.63
2018-06-23T19:53:49.325Z,1.90
2018-06-23T19:56:18.266Z,1.63
2018-06-23T19:58:47.891Z,1.80
2018-06-23T20:01:17.498Z,2.00
2018-06-23T20:03:47.399Z,1.87
2018-06-23T20:06:16.406Z,1.83
2018-06-23T20:08:45.332Z,1.80
2018-06-23T20:11:14.260Z,1.73
2018-06-23T20:13:43.156Z,2.33
2018-06-23T20:16:12.116Z,2.27
2018-06-23T20:18:41.013Z,2.30
2018-06-23T20:21:09.985Z,2.30
2018-06-23T20:23:39.048Z,2.10
2018-06-23T20:26:07.914Z,2.33
2018-06-23T20:28:36.862Z,2.40
2018-06-23T20:31:06.145Z,2.10
2018-06-23T20:33:35.484Z,2.70
2018-06-23T20:36:04.604Z,3.20
2018-06-23T20:38:33.618Z,3.03
2018-06-23T20:41:02.509Z,2.63
2018-06-23T20:43:34.809Z,3.13
2018-06-23T20:46:03.724Z,3.07
2018-06-23T20:48:32.787Z,2.80
2018-06-23T20:51:01.705Z,2.07
2018-06-23T20:53:30.625Z,3.20
2018-06-23T20:55:59.641Z,2.50
2018-06-23T20:58:28.536Z,3.77
2018-06-23T21:00:57.525Z,3.40
2018-06-23T21:03:26.385Z,3.50
2018-06-23T21:05:55.320Z,3.20
2018-06-23T21:08:24.213Z,3.00
2018-06-23T21:10:53.156Z,3.23
2018-06-23T21:13:23.096Z,2.70
2018-06-23T21:15:52.020Z,2.73
2018-06-23T21:18:21.194Z,2.87
2018-06-23T21:20:50.175Z,2.90
2018-06-23T21:23:19.100Z,2.87
2018-06-23T21:25:47.988Z,3.20
2018-06-23T21:28:16.999Z,4.10
2018-06-23T21:30:46.021Z,2.90
2018-06-23T21:33:14.875Z,3.27
2018-06-23T21:35:43.728Z,3.40
2018-06-23T21:38:12.628Z,2.90
2018-06-23T21:40:41.547Z,4.47
2018-06-23T21:43:10.480Z,3.37
2018-06-23T21:45:39.352Z,3.30
2018-06-23T21:48:08.366Z,2.90
2018-06-23T21:50:37.296Z,3.23
2018-06-23T21:53:06.123Z,3.23
2018-06-23T21:55:34.858Z,3.57
2018-06-23T21:58:03.828Z,2.80
2018-06-23T22:00:35.764Z,3.13
2018-06-23T22:03:05.707Z,3.10
2018-06-23T22:05:34.847Z,3.00
2018-06-23T22:08:03.796Z,3.03
2018-06-23T22:10:32.708Z,3.40
2018-06-23T22:13:02.104Z,3.77
2018-06-23T22:15:31.363Z,3.13
2018-06-23T22:18:00.291Z,3.07
2018-06-23T22:20:29.238Z,3.00
2018-06-23T22:22:58.140Z,3.00
2018-06-23T22:25:27.059Z,2.80
2018-06-23T22:27:55.992Z,2.67
2018-06-23T22:30:24.964Z,3.10
2018-06-23T22:32:53.683Z,2.83
2018-06-23T22:35:22.499Z,3.67
2018-06-23T22:37:51.446Z,2.77
2018-06-23T22:40:20.452Z,2.70
2018-06-23T22:42:49.632Z,2.70
2018-06-23T22:45:18.576Z,3.17
2018-06-23T22:47:47.456Z,2.60
2018-06-23T22:50:16.364Z,3.07
2018-06-23T22:52:45.263Z,3.27
2018-06-23T22:55:14.247Z,3.20
2018-06-23T22:57:43.164Z,3.53
